createdAt,value
2023-04-23T00:00:17.378Z,80.98
2023-04-23T00:01:17.335Z,80.84
2023-04-23T00:02:17.532Z,80.78
2023-04-23T00:03:17.464Z,81.18
2023-04-23T00:04:17.512Z,80.98
2023-04-23T00:05:17.258Z,81.15
2023-04-23T00:06:17.256Z,81.04
2023-04-23T00:07:17.227Z,81.35
2023-04-23T00:08:17.209Z,80.98
2023-04-23T00:09:17.121Z,81.29
2023-04-23T00:10:17.182Z,81.29
2023-04-23T00:11:17.108Z,81.39
2023-04-23T00:12:17.035Z,81.39
2023-04-23T00:13:17.013Z,81.59
2023-04-23T00:14:16.991Z,82.10
2023-04-23T00:15:16.958Z,81.49
2023-04-23T00:16:16.966Z,82.00
2023-04-23T00:17:16.909Z,82.61
2023-04-23T00:18:16.883Z,82.71
2023-04-23T00:19:16.853Z,82.61
2023-04-23T00:20:16.847Z,82.61
2023-04-23T00:21:16.798Z,82.92
2023-04-23T00:22:16.776Z,83.33
2023-04-23T00:23:16.745Z,84.28
2023-04-23T00:24:16.721Z,85.10
2023-04-23T00:25:16.697Z,84.49
2023-04-23T00:26:16.668Z,84.90
2023-04-23T00:27:16.633Z,84.49
2023-04-23T00:28:16.618Z,84.90
2023-04-23T00:29:16.584Z,85.30
2023-04-23T00:30:16.556Z,85.61
2023-04-23T00:31:16.552Z,85.82
2023-04-23T00:32:16.521Z,86.12
2023-04-23T00:33:16.481Z,86.12
2023-04-23T00:34:16.454Z,85.71
2023-04-23T00:35:16.422Z,86.22
2023-04-23T00:36:16.396Z,85.75
2023-04-23T00:37:16.395Z,86.53
2023-04-23T00:38:16.341Z,86.63
2023-04-23T00:39:16.319Z,86.73
2023-04-23T00:40:16.306Z,87.24
2023-04-23T00:41:16.267Z,86.22
2023-04-23T00:42:16.229Z,86.36
2023-04-23T00:43:16.204Z,87.70
2023-04-23T00:44:16.181Z,88.20
2023-04-23T00:45:16.176Z,86.77
2023-04-23T00:46:16.184Z,86.63
2023-04-23T00:47:16.157Z,86.88
2023-04-23T00:48:16.093Z,87.08
2023-04-23T00:49:16.048Z,86.33
2023-04-23T00:50:16.032Z,86.53
2023-04-23T00:51:15.988Z,86.94
2023-04-23T00:52:15.961Z,87.18
2023-04-23T00:53:15.934Z,86.88
2023-04-23T00:54:15.947Z,86.67
2023-04-23T00:55:15.877Z,86.67
2023-04-23T00:56:15.860Z,87.08
2023-04-23T00:57:15.827Z,87.18
2023-04-23T00:58:15.799Z,87.18
2023-04-23T00:59:15.774Z,86.88
2023-04-23T01:00:15.747Z,86.98
2023-04-23T01:01:15.770Z,87.18
2023-04-23T01:02:15.768Z,87.23
2023-04-23T01:03:15.862Z,87.38
2023-04-23T01:04:15.805Z,87.18
2023-04-23T01:05:15.610Z,87.38
2023-04-23T01:06:15.592Z,88.00
2023-04-23T01:07:15.562Z,87.90
2023-04-23T01:08:15.559Z,89.32
2023-04-23T01:09:15.508Z,87.79
2023-04-23T01:10:15.490Z,87.73
2023-04-23T01:11:15.452Z,89.17
2023-04-23T01:12:15.423Z,89.58
2023-04-23T01:13:15.397Z,91.20
2023-04-23T01:14:15.368Z,90.19
2023-04-23T01:15:15.341Z,91.25
2023-04-23T01:16:15.313Z,91.05
2023-04-23T01:17:15.286Z,92.07
2023-04-23T01:18:15.257Z,91.92
2023-04-23T01:19:15.235Z,92.07
2023-04-23T01:20:15.246Z,91.46
2023-04-23T01:21:15.187Z,91.96
2023-04-23T01:22:15.153Z,92.37
2023-04-23T01:23:15.123Z,93.60
2023-04-23T01:24:15.094Z,94.01
2023-04-23T01:25:15.069Z,92.58
2023-04-23T01:26:15.042Z,94.01
2023-04-23T01:27:15.015Z,93.33
2023-04-23T01:28:14.994Z,93.95
2023-04-23T01:29:14.961Z,94.15
2023-04-23T01:30:14.948Z,95.18
2023-04-23T01:31:14.922Z,95.07
2023-04-23T01:32:14.875Z,95.48
2023-04-23T01:33:14.858Z,94.67
2023-04-23T01:34:14.819Z,94.77
2023-04-23T01:35:14.794Z,94.77
2023-04-23T01:36:14.784Z,95.07
2023-04-23T01:37:14.740Z,93.44
2023-04-23T01:38:14.718Z,94.06
2023-04-23T01:39:14.689Z,94.06
2023-04-23T01:40:14.656Z,93.95
2023-04-23T01:41:14.629Z,94.67
2023-04-23T01:42:14.610Z,93.44
2023-04-23T01:43:14.575Z,94.15
2023-04-23T01:44:14.561Z,94.26
2023-04-23T01:45:14.518Z,93.65
2023-04-23T01:46:14.556Z,93.74
2023-04-23T01:47:14.463Z,93.65
2023-04-23T01:48:14.433Z,93.65
2023-04-23T01:49:14.403Z,93.13
2023-04-23T01:50:14.399Z,94.87
2023-04-23T01:51:14.352Z,93.99
2023-04-23T01:52:14.346Z,95.43
2023-04-23T01:53:14.302Z,95.43
2023-04-23T01:54:14.268Z,95.94
2023-04-23T01:55:14.250Z,95.63
2023-04-23T01:56:14.215Z,95.02
2023-04-23T01:57:14.187Z,96.04
2023-04-23T01:58:14.158Z,95.32
2023-04-23T01:59:14.129Z,95.43
2023-04-23T02:00:14.105Z,95.53
2023-04-23T02:01:14.125Z,96.45
2023-04-23T02:02:14.158Z,96.75
2023-04-23T02:03:14.236Z,96.66
2023-04-23T02:04:14.177Z,96.86
2023-04-23T02:05:13.963Z,96.66
2023-04-23T02:06:13.937Z,96.55
2023-04-23T02:07:13.906Z,97.31
2023-04-23T02:08:13.918Z,98.24
2023-04-23T02:09:13.852Z,98.29
2023-04-23T02:10:13.845Z,97.92
2023-04-23T02:11:13.796Z,98.24
2023-04-23T02:12:13.776Z,98.24
2023-04-23T02:13:13.744Z,98.03
2023-04-23T02:14:13.722Z,99.26
2023-04-23T02:15:13.699Z,98.24
2023-04-23T02:16:13.674Z,98.95
2023-04-23T02:17:13.631Z,98.95
2023-04-23T02:18:13.606Z,99.26
2023-04-23T02:19:15.405Z,99.66
2023-04-23T02:20:13.558Z,99.36
2023-04-23T02:21:13.533Z,98.95
2023-04-23T02:22:13.496Z,98.65
2023-04-23T02:23:13.465Z,99.77
2023-04-23T02:24:13.464Z,98.74
2023-04-23T02:25:13.412Z,99.87
2023-04-23T02:26:13.386Z,99.82
2023-04-23T02:27:13.354Z,98.90
2023-04-23T02:28:13.330Z,99.51
2023-04-23T02:29:13.304Z,99.46
2023-04-23T02:30:13.285Z,99.82
2023-04-23T02:31:13.307Z,99.99
2023-04-23T02:32:13.215Z,99.99
2023-04-23T02:33:13.191Z,99.99
2023-04-23T02:34:13.167Z,99.77
2023-04-23T02:35:13.144Z,99.98
2023-04-23T02:36:13.127Z,99.99
2023-04-23T02:37:13.106Z,99.99
2023-04-23T02:38:13.053Z,99.99
2023-04-23T02:39:13.031Z,99.99
2023-04-23T02:40:13.022Z,99.99
2023-04-23T02:41:12.970Z,99.99
2023-04-23T02:42:12.943Z,99.99
2023-04-23T02:43:12.913Z,99.99
2023-04-23T02:44:12.889Z,99.99
2023-04-23T02:45:12.858Z,99.99
2023-04-23T02:46:12.845Z,99.99
2023-04-23T02:47:12.800Z,99.99
2023-04-23T02:48:12.778Z,99.99
2023-04-23T02:49:12.757Z,99.99
2023-04-23T02:50:12.729Z,99.99
2023-04-23T02:51:12.699Z,99.99
2023-04-23T02:52:12.687Z,99.99
2023-04-23T02:53:12.639Z,99.99
2023-04-23T02:54:12.613Z,99.99
2023-04-23T02:55:12.585Z,99.99
2023-04-23T02:56:12.579Z,99.99
2023-04-23T02:57:12.530Z,99.99
2023-04-23T02:58:12.515Z,99.99
2023-04-23T02:59:12.490Z,99.99
2023-04-23T03:00:12.447Z,99.99
2023-04-23T03:01:12.474Z,99.99
2023-04-23T03:02:12.508Z,99.99
2023-04-23T03:03:12.872Z,99.99
2023-04-23T03:04:12.453Z,99.99
2023-04-23T03:05:12.311Z,99.99
2023-04-23T03:06:12.313Z,99.99
2023-04-23T03:07:12.254Z,99.99
2023-04-23T03:08:12.230Z,99.99
2023-04-23T03:09:12.201Z,99.99
2023-04-23T03:10:12.178Z,99.99
2023-04-23T03:11:12.148Z,99.99
2023-04-23T03:12:12.153Z,99.99
2023-04-23T03:13:12.091Z,99.99
2023-04-23T03:14:12.078Z,99.99
2023-04-23T03:15:12.033Z,99.99
2023-04-23T03:16:12.024Z,99.99
2023-04-23T03:17:11.982Z,99.99
2023-04-23T03:18:11.979Z,99.99
2023-04-23T03:19:11.931Z,99.99
2023-04-23T03:20:11.901Z,99.99
2023-04-23T03:21:11.873Z,99.99
2023-04-23T03:22:11.856Z,99.99
2023-04-23T03:23:11.823Z,99.99
2023-04-23T03:24:11.798Z,99.99
2023-04-23T03:25:11.764Z,99.99
2023-04-23T03:26:11.753Z,99.99
2023-04-23T03:27:11.714Z,99.99
2023-04-23T03:28:11.700Z,99.99
2023-04-23T03:29:11.658Z,99.99
2023-04-23T03:30:11.632Z,99.99
2023-04-23T03:31:11.678Z,99.99
2023-04-23T03:32:11.574Z,99.99
2023-04-23T03:33:11.555Z,99.99
2023-04-23T03:34:11.532Z,99.99
2023-04-23T03:35:11.502Z,99.99
2023-04-23T03:36:11.468Z,99.99
2023-04-23T03:37:11.436Z,99.99
2023-04-23T03:38:11.419Z,99.99
2023-04-23T03:39:11.395Z,99.99
2023-04-23T03:40:11.363Z,99.99
2023-04-23T03:41:11.348Z,99.99
2023-04-23T03:42:11.300Z,99.99
2023-04-23T03:43:11.270Z,99.99
2023-04-23T03:44:11.287Z,99.99
2023-04-23T03:45:11.222Z,99.99
2023-04-23T03:46:11.242Z,99.99
2023-04-23T03:47:11.162Z,99.99
2023-04-23T03:48:11.137Z,99.99
2023-04-23T03:49:11.120Z,99.99
2023-04-23T03:50:11.106Z,99.99
2023-04-23T03:51:11.060Z,99.99
2023-04-23T03:52:11.028Z,99.99
2023-04-23T03:53:11.005Z,99.99
2023-04-23T03:54:10.977Z,99.99
2023-04-23T03:55:10.944Z,99.99
2023-04-23T03:56:10.924Z,99.99
2023-04-23T03:57:10.892Z,99.99
2023-04-23T03:58:10.864Z,99.99
2023-04-23T03:59:10.842Z,99.99
2023-04-23T04:00:10.835Z,99.99
2023-04-23T04:01:10.782Z,99.99
2023-04-23T04:02:10.841Z,99.99
2023-04-23T04:03:10.896Z,99.99
2023-04-23T04:04:10.904Z,99.99
2023-04-23T04:05:10.978Z,99.99
2023-04-23T04:06:10.649Z,99.99
2023-04-23T04:07:10.620Z,99.99
2023-04-23T04:08:10.594Z,99.99
2023-04-23T04:09:10.568Z,99.99
2023-04-23T04:10:10.570Z,99.99
2023-04-23T04:11:10.509Z,99.99
2023-04-23T04:12:10.504Z,99.99
2023-04-23T04:13:10.457Z,99.99
2023-04-23T04:14:10.433Z,99.99
2023-04-23T04:15:10.425Z,99.99
2023-04-23T04:16:10.512Z,99.99
2023-04-23T04:17:10.350Z,99.99
2023-04-23T04:18:10.326Z,99.99
2023-04-23T04:19:10.294Z,99.99
2023-04-23T04:20:10.272Z,99.99
2023-04-23T04:21:10.242Z,99.99
2023-04-23T04:22:10.229Z,99.99
2023-04-23T04:23:10.200Z,99.99
2023-04-23T04:24:10.161Z,99.99
2023-04-23T04:25:10.137Z,99.99
2023-04-23T04:26:10.105Z,99.99
2023-04-23T04:27:10.085Z,99.99
2023-04-23T04:28:10.068Z,99.99
2023-04-23T04:29:10.056Z,99.99
2023-04-23T04:30:10.007Z,99.99
2023-04-23T04:31:09.982Z,99.99
2023-04-23T04:32:09.956Z,99.99
2023-04-23T04:33:09.915Z,99.99
2023-04-23T04:34:09.889Z,99.99
2023-04-23T04:35:09.865Z,99.99
2023-04-23T04:36:09.833Z,99.99
2023-04-23T04:37:09.804Z,99.99
2023-04-23T04:38:09.778Z,99.99
2023-04-23T04:39:09.747Z,99.99
2023-04-23T04:40:09.721Z,99.99
2023-04-23T04:41:09.694Z,99.99
2023-04-23T04:42:09.667Z,99.99
2023-04-23T04:43:09.637Z,99.99
2023-04-23T04:44:09.614Z,99.99
2023-04-23T04:45:09.588Z,99.99
2023-04-23T04:46:09.560Z,99.99
2023-04-23T04:47:09.596Z,99.99
2023-04-23T04:48:09.522Z,99.99
2023-04-23T04:49:09.483Z,99.99
2023-04-23T04:50:09.464Z,99.99
2023-04-23T04:51:09.420Z,99.99
2023-04-23T04:52:09.404Z,99.99
2023-04-23T04:53:09.367Z,99.99
2023-04-23T04:54:09.336Z,99.99
2023-04-23T04:55:09.313Z,99.99
2023-04-23T04:56:09.285Z,99.99
2023-04-23T04:57:09.256Z,99.99
2023-04-23T04:58:09.233Z,99.99
2023-04-23T04:59:09.203Z,99.99
2023-04-23T05:00:09.178Z,99.99
2023-04-23T05:01:09.197Z,99.99
2023-04-23T05:02:09.210Z,99.99
2023-04-23T05:03:10.918Z,99.99
2023-04-23T05:04:09.445Z,99.99
2023-04-23T05:05:09.043Z,99.99
2023-04-23T05:06:09.038Z,99.99
2023-04-23T05:07:08.990Z,99.99
2023-04-23T05:08:08.961Z,99.99
2023-04-23T05:09:08.934Z,99.99
2023-04-23T05:10:08.909Z,99.99
2023-04-23T05:11:08.877Z,99.99
2023-04-23T05:12:08.853Z,99.99
2023-04-23T05:13:08.824Z,99.99
2023-04-23T05:14:08.797Z,99.99
2023-04-23T05:15:08.787Z,99.99
2023-04-23T05:16:08.800Z,99.99
2023-04-23T05:17:08.732Z,99.99
2023-04-23T05:18:08.703Z,99.99
2023-04-23T05:19:08.670Z,99.99
2023-04-23T05:20:08.655Z,99.99
2023-04-23T05:21:08.610Z,99.99
2023-04-23T05:22:08.602Z,99.99
2023-04-23T05:23:08.553Z,99.99
2023-04-23T05:24:08.529Z,99.99
2023-04-23T05:25:08.499Z,99.99
2023-04-23T05:26:08.492Z,99.99
2023-04-23T05:27:08.445Z,99.99
2023-04-23T05:28:08.423Z,99.99
2023-04-23T05:29:08.391Z,99.99
2023-04-23T05:30:08.372Z,99.99
2023-04-23T05:31:08.333Z,99.99
2023-04-23T05:32:08.347Z,99.99
2023-04-23T05:33:08.284Z,99.99
2023-04-23T05:34:08.258Z,99.99
2023-04-23T05:35:08.231Z,99.99
2023-04-23T05:36:08.219Z,99.99
2023-04-23T05:37:08.173Z,99.99
2023-04-23T05:38:08.147Z,99.99
2023-04-23T05:39:08.116Z,99.99
2023-04-23T05:40:08.101Z,99.99
2023-04-23T05:41:08.064Z,99.99
2023-04-23T05:42:08.034Z,99.99
2023-04-23T05:43:08.012Z,99.99
2023-04-23T05:44:07.984Z,99.99
2023-04-23T05:45:09.062Z,99.99
2023-04-23T05:46:08.027Z,99.99
2023-04-23T05:47:07.895Z,99.99
2023-04-23T05:48:07.874Z,99.99
2023-04-23T05:49:07.842Z,99.99
2023-04-23T05:50:07.817Z,99.99
2023-04-23T05:51:07.788Z,99.99
2023-04-23T05:52:07.782Z,99.99
2023-04-23T05:53:07.732Z,99.99
2023-04-23T05:54:07.716Z,99.99
2023-04-23T05:55:07.697Z,99.99
2023-04-23T05:56:07.679Z,99.99
2023-04-23T05:57:07.629Z,99.99
2023-04-23T05:58:07.685Z,99.99
2023-04-23T05:59:07.569Z,99.99
2023-04-23T06:00:07.572Z,99.99
2023-04-23T06:01:07.513Z,99.99
2023-04-23T06:02:07.609Z,99.99
2023-04-23T06:03:07.550Z,99.99
2023-04-23T06:04:07.644Z,99.99
2023-04-23T06:05:07.662Z,99.99
2023-04-23T06:06:07.386Z,99.99
2023-04-23T06:07:07.377Z,99.99
2023-04-23T06:08:07.346Z,99.99
2023-04-23T06:09:07.301Z,99.99
2023-04-23T06:10:07.277Z,99.99
2023-04-23T06:11:07.248Z,99.99
2023-04-23T06:12:07.219Z,99.99
2023-04-23T06:13:07.197Z,99.99
2023-04-23T06:14:07.164Z,99.99
2023-04-23T06:15:07.141Z,99.99
2023-04-23T06:16:07.156Z,99.99
2023-04-23T06:17:07.092Z,99.99
2023-04-23T06:18:07.127Z,99.99
2023-04-23T06:19:07.034Z,99.99
2023-04-23T06:20:07.018Z,99.99
2023-04-23T06:21:06.985Z,99.99
2023-04-23T06:22:06.952Z,99.99
2023-04-23T06:23:06.924Z,99.99
2023-04-23T06:24:06.925Z,99.99
2023-04-23T06:25:06.872Z,99.99
2023-04-23T06:26:06.844Z,99.99
2023-04-23T06:27:06.819Z,99.99
2023-04-23T06:28:06.788Z,99.99
2023-04-23T06:29:06.761Z,99.99
2023-04-23T06:30:06.760Z,99.99
2023-04-23T06:31:06.721Z,99.99
2023-04-23T06:32:06.689Z,99.99
2023-04-23T06:33:06.713Z,99.99
2023-04-23T06:34:06.627Z,99.99
2023-04-23T06:35:06.968Z,99.99
2023-04-23T06:36:06.574Z,99.99
2023-04-23T06:37:06.550Z,99.99
2023-04-23T06:38:06.521Z,99.99
2023-04-23T06:39:06.498Z,99.99
2023-04-23T06:40:06.493Z,99.99
2023-04-23T06:41:06.444Z,99.99
2023-04-23T06:42:06.415Z,99.99
2023-04-23T06:43:06.388Z,99.99
2023-04-23T06:44:06.358Z,99.99
2023-04-23T06:45:06.575Z,99.99
2023-04-23T06:46:06.309Z,99.99
2023-04-23T06:47:06.340Z,99.99
2023-04-23T06:48:06.315Z,99.99
2023-04-23T06:49:06.231Z,99.99
2023-04-23T06:50:06.208Z,99.99
2023-04-23T06:51:06.181Z,99.99
2023-04-23T06:52:06.151Z,99.99
2023-04-23T06:53:06.126Z,99.99
2023-04-23T06:54:06.098Z,99.99
2023-04-23T06:55:06.073Z,99.99
2023-04-23T06:56:06.078Z,99.91
2023-04-23T06:57:06.022Z,99.99
2023-04-23T06:58:06.099Z,99.91
2023-04-23T06:59:05.968Z,99.99
2023-04-23T07:00:05.943Z,99.85
2023-04-23T07:01:05.954Z,99.99
2023-04-23T07:02:05.949Z,99.99
2023-04-23T07:03:05.954Z,99.99
2023-04-23T07:04:05.856Z,99.99
2023-04-23T07:05:05.823Z,99.99
2023-04-23T07:06:05.797Z,99.99
2023-04-23T07:07:05.769Z,99.99
2023-04-23T07:08:05.742Z,99.99
2023-04-23T07:09:05.721Z,99.99
2023-04-23T07:10:05.702Z,99.99
2023-04-23T07:11:05.785Z,99.99
2023-04-23T07:12:05.669Z,99.55
2023-04-23T07:13:05.621Z,99.25
2023-04-23T07:14:05.601Z,99.99
2023-04-23T07:15:05.597Z,99.51
2023-04-23T07:16:05.553Z,99.26
2023-04-23T07:17:05.627Z,97.53
2023-04-23T07:18:05.497Z,97.17
2023-04-23T07:19:05.471Z,97.07
2023-04-23T07:20:05.449Z,96.87
2023-04-23T07:21:05.419Z,96.77
2023-04-23T07:22:05.392Z,96.61
2023-04-23T07:23:05.367Z,96.71
2023-04-23T07:24:05.454Z,96.81
2023-04-23T07:25:05.324Z,97.63
2023-04-23T07:26:05.294Z,96.67
2023-04-23T07:27:05.269Z,95.34
2023-04-23T07:28:05.265Z,96.26
2023-04-23T07:29:05.215Z,95.65
2023-04-23T07:30:05.215Z,96.15
2023-04-23T07:31:05.166Z,94.89
2023-04-23T07:32:05.163Z,95.00
2023-04-23T07:33:05.148Z,94.69
2023-04-23T07:34:05.092Z,93.87
2023-04-23T07:35:05.097Z,93.77
2023-04-23T07:36:05.036Z,94.95
2023-04-23T07:37:05.016Z,93.67
2023-04-23T07:38:04.989Z,94.74
2023-04-23T07:39:04.967Z,94.85
2023-04-23T07:40:04.937Z,93.22
2023-04-23T07:41:04.914Z,93.38
2023-04-23T07:42:04.889Z,92.36
2023-04-23T07:43:04.865Z,93.48
2023-04-23T07:44:04.863Z,92.83
2023-04-23T07:45:04.815Z,92.36
2023-04-23T07:46:04.802Z,92.10
2023-04-23T07:47:04.764Z,92.61
2023-04-23T07:48:04.737Z,93.02
2023-04-23T07:49:04.717Z,91.86
2023-04-23T07:50:04.687Z,91.96
2023-04-23T07:51:04.660Z,91.65
2023-04-23T07:52:04.635Z,92.21
2023-04-23T07:53:04.616Z,93.32
2023-04-23T07:54:04.619Z,93.43
2023-04-23T07:55:04.565Z,93.52
2023-04-23T07:56:04.562Z,95.36
2023-04-23T07:57:04.529Z,93.28
2023-04-23T07:58:04.489Z,93.28
2023-04-23T07:59:04.477Z,91.41
2023-04-23T08:00:04.472Z,92.12
2023-04-23T08:01:04.417Z,91.47
2023-04-23T08:02:04.457Z,90.86
2023-04-23T08:03:04.471Z,90.29
2023-04-23T08:04:04.574Z,90.55
2023-04-23T08:05:04.425Z,91.82
2023-04-23T08:06:04.289Z,91.51
2023-04-23T08:07:04.267Z,89.98
2023-04-23T08:08:04.253Z,89.33
2023-04-23T08:09:04.217Z,89.68
2023-04-23T08:10:04.209Z,89.11
2023-04-23T08:11:04.172Z,90.59
2023-04-23T08:12:04.145Z,87.85
2023-04-23T08:13:04.120Z,88.76
2023-04-23T08:14:04.120Z,89.43
2023-04-23T08:15:04.068Z,89.68
2023-04-23T08:16:04.099Z,86.74
2023-04-23T08:17:04.017Z,87.89
2023-04-23T08:18:03.998Z,88.30
2023-04-23T08:19:06.065Z,88.67
2023-04-23T08:20:03.942Z,87.04
2023-04-23T08:21:03.916Z,87.99
2023-04-23T08:22:03.893Z,87.69
2023-04-23T08:23:03.889Z,87.99
2023-04-23T08:24:03.846Z,87.93
2023-04-23T08:25:03.833Z,88.34
2023-04-23T08:26:03.796Z,89.62
2023-04-23T08:27:03.771Z,89.31
2023-04-23T08:28:03.749Z,85.52
2023-04-23T08:29:03.719Z,84.80
2023-04-23T08:30:03.693Z,83.28
2023-04-23T08:31:12.039Z,85.17
2023-04-23T08:32:03.698Z,85.01
2023-04-23T08:33:03.681Z,84.50
2023-04-23T08:34:03.594Z,85.78
2023-04-23T08:35:03.571Z,86.80
2023-04-23T08:36:03.545Z,85.44
2023-04-23T08:37:03.537Z,85.44
2023-04-23T08:38:03.506Z,82.09
2023-04-23T08:39:03.476Z,83.26
2023-04-23T08:40:03.457Z,82.35
2023-04-23T08:41:03.424Z,80.19
2023-04-23T08:42:03.395Z,82.01
2023-04-23T08:43:03.374Z,82.01
2023-04-23T08:44:03.348Z,83.09
2023-04-23T08:45:03.341Z,80.35
2023-04-23T08:46:03.306Z,82.31
2023-04-23T08:47:03.464Z,78.50
2023-04-23T08:48:03.306Z,78.64
2023-04-23T08:49:03.223Z,81.05
2023-04-23T08:50:03.200Z,80.37
2023-04-23T08:51:03.182Z,80.74
2023-04-23T08:52:03.151Z,82.26
2023-04-23T08:53:03.128Z,80.91
2023-04-23T08:54:03.109Z,80.91
2023-04-23T08:55:03.080Z,83.85
2023-04-23T08:56:03.054Z,83.04
2023-04-23T08:57:03.031Z,82.33
2023-04-23T08:58:03.010Z,82.19
2023-04-23T08:59:02.984Z,82.56
2023-04-23T09:00:02.979Z,84.44
2023-04-23T09:01:02.963Z,82.17
2023-04-23T09:02:02.919Z,82.84
2023-04-23T09:03:03.071Z,82.58
2023-04-23T09:04:02.940Z,81.83
2023-04-23T09:05:02.841Z,79.58
2023-04-23T09:06:02.813Z,79.41
2023-04-23T09:07:02.816Z,78.84
2023-04-23T09:08:02.771Z,77.99
2023-04-23T09:09:02.741Z,80.66
2023-04-23T09:10:02.721Z,82.39
2023-04-23T09:11:02.692Z,82.15
2023-04-23T09:12:02.672Z,80.43
2023-04-23T09:13:02.644Z,81.54
2023-04-23T09:14:02.621Z,83.12
2023-04-23T09:15:02.592Z,82.82
2023-04-23T09:16:02.585Z,78.87
2023-04-23T09:17:02.550Z,80.55
2023-04-23T09:18:02.550Z,76.60
2023-04-23T09:19:02.500Z,76.33
2023-04-23T09:20:02.501Z,79.31
2023-04-23T09:21:02.454Z,79.82
2023-04-23T09:22:02.429Z,79.11
2023-04-23T09:23:02.406Z,78.80
2023-04-23T09:24:02.409Z,79.35
2023-04-23T09:25:02.357Z,79.41
2023-04-23T09:26:02.342Z,79.00
2023-04-23T09:27:02.356Z,78.70
2023-04-23T09:28:02.281Z,78.44
2023-04-23T09:29:02.262Z,82.15
2023-04-23T09:30:02.249Z,78.66
2023-04-23T09:31:02.213Z,79.03
2023-04-23T09:32:02.199Z,78.08
2023-04-23T09:33:02.204Z,78.55
2023-04-23T09:34:02.142Z,73.63
2023-04-23T09:35:02.120Z,76.90
2023-04-23T09:36:02.115Z,77.75
2023-04-23T09:37:02.089Z,79.64
2023-04-23T09:38:02.053Z,75.28
2023-04-23T09:39:02.060Z,75.04
2023-04-23T09:40:02.002Z,74.20
2023-04-23T09:41:01.982Z,74.60
2023-04-23T09:42:01.956Z,73.05
2023-04-23T09:43:01.929Z,76.09
2023-04-23T09:44:01.910Z,75.85
2023-04-23T09:45:01.886Z,73.90
2023-04-23T09:46:01.865Z,75.28
2023-04-23T09:47:01.836Z,75.95
2023-04-23T09:48:01.879Z,72.85
2023-04-23T09:49:01.791Z,75.72
2023-04-23T09:50:01.767Z,74.68
2023-04-23T09:51:01.747Z,73.90
2023-04-23T09:52:01.740Z,74.37
2023-04-23T09:53:01.699Z,73.66
2023-04-23T09:54:01.686Z,78.12
2023-04-23T09:55:01.649Z,78.59
2023-04-23T09:56:01.624Z,75.42
2023-04-23T09:57:01.603Z,72.95
2023-04-23T09:58:01.580Z,71.94
2023-04-23T09:59:01.555Z,76.09
2023-04-23T10:00:13.458Z,76.97
2023-04-23T10:01:01.529Z,74.23
2023-04-23T10:02:01.517Z,74.74
2023-04-23T10:03:01.574Z,74.37
2023-04-23T10:04:01.684Z,75.99
2023-04-23T10:05:21.502Z,78.01
2023-04-23T10:06:02.480Z,77.26
2023-04-23T10:07:17.425Z,70.83
2023-04-23T10:08:01.386Z,75.07
2023-04-23T10:09:01.322Z,77.77
2023-04-23T10:10:01.299Z,75.31
2023-04-23T10:11:10.163Z,72.55
2023-04-23T10:12:01.252Z,76.59
2023-04-23T10:13:01.234Z,76.26
2023-04-23T10:14:01.216Z,76.22
2023-04-23T10:15:01.184Z,75.10
2023-04-23T10:16:13.906Z,75.48
2023-04-23T10:17:01.150Z,72.01
2023-04-23T10:18:01.170Z,72.95
2023-04-23T10:19:01.097Z,73.56
2023-04-23T10:20:01.073Z,74.20
2023-04-23T10:21:01.046Z,71.09
2023-04-23T10:22:12.200Z,72.17
2023-04-23T10:23:01.003Z,71.97
2023-04-23T10:24:01.001Z,72.58
2023-04-23T10:25:00.954Z,72.75
2023-04-23T10:26:00.933Z,72.78
2023-04-23T10:27:02.089Z,72.48
2023-04-23T10:28:00.885Z,71.03
2023-04-23T10:29:00.864Z,69.58
2023-04-23T10:30:00.861Z,70.29
2023-04-23T10:31:00.886Z,72.17
2023-04-23T10:32:00.803Z,72.44
2023-04-23T10:33:00.816Z,71.23
2023-04-23T10:34:00.813Z,70.39
2023-04-23T10:35:00.725Z,70.19
2023-04-23T10:36:00.703Z,73.55
2023-04-23T10:37:00.686Z,72.48
2023-04-23T10:38:00.658Z,71.03
2023-04-23T10:39:01.979Z,72.95
2023-04-23T10:40:00.632Z,75.48
2023-04-23T10:41:00.592Z,74.74
2023-04-23T10:42:00.580Z,74.13
2023-04-23T10:43:00.545Z,71.87
2023-04-23T10:44:00.517Z,72.58
2023-04-23T10:45:07.186Z,71.97
2023-04-23T10:46:00.515Z,70.12
2023-04-23T10:47:00.490Z,72.55
2023-04-23T10:48:00.524Z,70.42
2023-04-23T10:49:00.411Z,69.82
2023-04-23T10:50:00.415Z,71.80
2023-04-23T10:51:09.770Z,71.91
2023-04-23T10:52:18.540Z,71.50
2023-04-23T10:53:00.322Z,70.76
2023-04-23T10:54:00.287Z,68.20
2023-04-23T10:55:00.564Z,70.46
2023-04-23T10:56:00.267Z,67.76
2023-04-23T10:57:00.232Z,70.15
2023-04-23T10:58:01.744Z,69.34
2023-04-23T10:59:00.177Z,68.07
2023-04-23T11:00:00.192Z,70.39
2023-04-23T11:01:00.129Z,68.44
2023-04-23T11:02:00.153Z,68.24
2023-04-23T11:03:00.197Z,67.13
2023-04-23T11:04:00.253Z,66.49
2023-04-23T11:05:00.105Z,66.93
2023-04-23T11:06:00.012Z,67.73
2023-04-23T11:06:59.989Z,67.50
2023-04-23T11:08:08.185Z,69.08
2023-04-23T11:08:59.950Z,67.13
2023-04-23T11:09:59.919Z,64.78
2023-04-23T11:10:59.906Z,63.98
2023-04-23T11:11:59.898Z,65.92
2023-04-23T11:12:59.852Z,66.42
2023-04-23T11:14:00.796Z,66.66
2023-04-23T11:14:59.838Z,65.62
2023-04-23T11:15:59.796Z,64.64
2023-04-23T11:16:59.768Z,65.48
2023-04-23T11:17:59.764Z,69.18
2023-04-23T11:18:59.714Z,69.18
2023-04-23T11:19:59.698Z,68.24
2023-04-23T11:20:59.670Z,66.49
2023-04-23T11:21:59.716Z,67.53
2023-04-23T11:22:59.633Z,67.30
2023-04-23T11:23:59.605Z,69.48
2023-04-23T11:24:59.669Z,64.98
2023-04-23T11:25:59.560Z,64.94
2023-04-23T11:26:59.534Z,66.38
2023-04-23T11:27:59.546Z,66.21
2023-04-23T11:28:59.494Z,67.46
2023-04-23T11:30:00.062Z,65.67
2023-04-23T11:30:59.443Z,66.58
2023-04-23T11:32:02.650Z,67.76
2023-04-23T11:32:59.538Z,66.82
2023-04-23T11:33:59.380Z,67.02
2023-04-23T11:34:59.403Z,67.53
2023-04-23T11:35:59.333Z,68.13
2023-04-23T11:36:59.319Z,68.04
2023-04-23T11:37:59.290Z,67.90
2023-04-23T11:38:59.267Z,67.60
2023-04-23T11:39:59.244Z,68.10
2023-04-23T11:40:59.221Z,68.68
2023-04-23T11:41:59.234Z,69.38
2023-04-23T11:42:59.209Z,67.27
2023-04-23T11:43:59.172Z,69.38
2023-04-23T11:44:59.150Z,68.01
2023-04-23T11:45:59.130Z,64.18
2023-04-23T11:46:59.084Z,67.74
2023-04-23T11:47:59.530Z,65.42
2023-04-23T11:48:59.045Z,64.84
2023-04-23T11:49:59.018Z,65.65
2023-04-23T11:50:58.998Z,65.12
2023-04-23T11:51:58.972Z,64.64
2023-04-23T11:52:58.950Z,68.04
2023-04-23T11:53:58.932Z,67.60
2023-04-23T11:54:58.950Z,68.01
2023-04-23T11:55:58.883Z,63.20
2023-04-23T11:56:58.856Z,65.08
2023-04-23T11:57:58.836Z,65.38
2023-04-23T11:58:58.810Z,65.45
2023-04-23T11:59:58.809Z,66.66
2023-04-23T12:00:58.767Z,65.95
2023-04-23T12:01:58.816Z,65.52
2023-04-23T12:02:58.880Z,65.89
2023-04-23T12:03:59.053Z,64.15
2023-04-23T12:04:58.808Z,64.65
2023-04-23T12:05:58.666Z,62.04
2023-04-23T12:06:58.633Z,60.96
2023-04-23T12:07:58.613Z,60.55
2023-04-23T12:08:58.589Z,60.78
2023-04-23T12:09:58.567Z,61.82
2023-04-23T12:10:58.543Z,61.76
2023-04-23T12:11:58.714Z,61.79
2023-04-23T12:12:58.498Z,61.44
2023-04-23T12:13:58.476Z,63.26
2023-04-23T12:14:58.453Z,62.55
2023-04-23T12:15:58.477Z,63.26
2023-04-23T12:16:58.411Z,63.00
2023-04-23T12:17:58.416Z,64.28
2023-04-23T12:18:58.363Z,64.48
2023-04-23T12:19:58.345Z,63.95
2023-04-23T12:20:58.329Z,60.12
2023-04-23T12:21:58.316Z,64.07
2023-04-23T12:22:58.324Z,64.25
2023-04-23T12:23:58.253Z,62.61
2023-04-23T12:24:58.329Z,62.51
2023-04-23T12:25:58.209Z,64.42
2023-04-23T12:26:58.255Z,64.79
2023-04-23T12:27:58.196Z,60.81
2023-04-23T12:28:58.156Z,60.81
2023-04-23T12:29:58.123Z,58.29
2023-04-23T12:30:58.140Z,56.92
2023-04-23T12:31:58.100Z,58.68
2023-04-23T12:32:58.116Z,58.98
2023-04-23T12:33:58.033Z,60.89
2023-04-23T12:34:58.111Z,59.19
2023-04-23T12:35:57.998Z,59.08
2023-04-23T12:36:57.963Z,60.49
2023-04-23T12:37:57.949Z,64.19
2023-04-23T12:38:57.929Z,59.03
2023-04-23T12:39:57.907Z,58.83
2023-04-23T12:40:57.882Z,58.02
2023-04-23T12:41:57.855Z,60.74
2023-04-23T12:42:57.833Z,59.41
2023-04-23T12:43:57.814Z,58.02
2023-04-23T12:44:57.914Z,60.71
2023-04-23T12:45:57.775Z,58.97
2023-04-23T12:46:58.116Z,56.86
2023-04-23T12:47:57.774Z,58.07
2023-04-23T12:48:57.707Z,61.05
2023-04-23T12:49:57.689Z,62.53
2023-04-23T12:50:57.659Z,57.59
2023-04-23T12:51:57.809Z,55.71